Meteo Giornale » Osservazioni meteo Brasile » Sao Jose Dos Campo

ore: 07:00 - Osservazioni Meteo Sao Jose Dos Campo
Lat. 23° 14' S Lon. 45° 52' W Alt. 646 metri s.l.m.

coperto_pioggia

18 °C

Pioggia

Temp. 24 Ore

18 °C

25 °C

Nord

5.5 Km/h

Dew point 18 °C

Umidità 100 %

Visibilità  6 Km

Il sole sorge alle ore 06:13

Il sole tramonta alle ore 17:53

Data e Ora Cielo e Fenomeni T °C DP °C Um. % Pres. hPa Vis. km Vento km/h
Oggi h: 07:00 coperto_pioggia Pioggia 18 18 100 1014 6 N 5.5
Oggi h: 06:00 coperto_pioggia Pioggia Foschia 18 18 100 1015 3 N 3.7
Oggi h: 05:30 coperto_pioggia Pioggia Foschia 18 18 100 1015 2 NO 11.1
Ieri h: 23:30 molto_nuvoloso Molto Nuvoloso 21 19 88 1012 10 N 3.7
Ieri h: 23:00 sereno Sereno 20 19 93 1012 10 N 5.5
Ieri h: 22:00 sereno Sereno 20 19 93 1012 10 N 3.7
Ieri h: 21:00 sereno Sereno 20 19 93 1012 10 N 3.7
Ieri h: 20:00 poco_nuvoloso Poco Nuvoloso 20 19 93 1011 10 NE 9.3
Ieri h: 19:00 sereno Sereno 20 19 93 1012 10 N 5.5
Ieri h: 18:00 sereno Sereno 21 19 88 1012 10 N 9.3
Ieri h: 17:00 molto_nuvoloso Molto Nuvoloso 22 20 88 1013 7 N 5.5
Ieri h: 16:00 nuvoloso_temporali Temporale 23 22 94 1012 6 N 3.7
Ieri h: 15:37 nuvoloso_temporali Temporale Foschia 23 21 88 1013 2 S/SO 11.1
Ieri h: 15:21 nuvoloso_temporali Temporale Foschia 24 21 83 1013 3 S 7.4
Ieri h: 15:00 coperto_temporali Temporale Foschia 25 20 73 1012 5 NE 7.4
Ieri h: 14:00 molto_nuvoloso Molto Nuvoloso 25 19 69 1013 10 E/NE 9.3
Ieri h: 13:00 poco_nuvoloso Poco Nuvoloso 25 20 73 1014 10 NE 7.4
Ieri h: 12:00 poco_nuvoloso Poco Nuvoloso 24 20 78 1015 10 NE 11.1
Ieri h: 11:30 molto_nuvoloso Molto Nuvoloso 24 20 78 1016 10 NE 9.3
Ieri h: 11:00 molto_nuvoloso Molto Nuvoloso 23 20 83 1017 7 NE 11.1
Ieri h: 10:00 foschia Foschia 21 20 94 1017 5 N/NE 11.1
Ieri h: 09:00 foschia Foschia 20 19 93 1018 5 N 5.5
Ieri h: 08:00 nuvoloso Nuvoloso 19 18 93 1018 10 N/NE 7.4
Ieri h: 07:45 nuvoloso_temporali Temporale 19 18 93 1018 7 NE 7.4